Time;durP1;ratioP1;P1;durP2;ratioP2;P2;SDS_P1;SDS_P2;PMS_P1;PMS_P2;Temp;Humidity;BMP_temperature;BMP_pressure;BME280_temperature;BME280_humidity;BME280_pressure;Samples;Min_cycle;Max_cycle;Signal;HPM_P1;HPM_P2
2022/12/22 03:26:11;;;;;;;46.30;21.07;;;;;;;;;;4989101;28;20719;-81
2022/12/22 03:28:36;;;;;;;41.97;21.37;;;;;;;;;;4992368;28;20167;-81
2022/12/22 03:31:03;;;;;;;44.30;23.10;;;;;;;;;;4995958;28;20287;-81
2022/12/22 03:33:29;;;;;;;47.40;20.57;;;;;;;;;;4992163;28;20254;-81
2022/12/22 03:35:54;;;;;;;51.67;22.03;;;;;;;;;;4992040;28;20207;-81
2022/12/22 03:38:19;;;;;;;43.27;22.13;;;;;;;;;;5028489;22;20716;-72
2022/12/22 03:40:45;;;;;;;54.30;21.87;;;;;;;;;;5027290;28;20355;-73
2022/12/22 03:48:42;;;;;;;58.47;22.13;;;;;;;;;;5012276;28;20582;-72
2022/12/22 03:51:07;;;;;;;43.63;20.87;;;;;;;;;;5006957;28;20196;-72
2022/12/22 03:53:32;;;;;;;47.83;21.73;;;;;;;;;;5010581;28;20620;-72
2022/12/22 03:55:58;;;;;;;50.97;22.27;;;;;;;;;;5001371;28;20184;-72
2022/12/22 03:58:23;;;;;;;63.63;22.60;;;;;;;;;;5006198;28;20318;-73
2022/12/22 04:00:48;;;;;;;45.80;23.43;;;;;;;;;;5005990;28;20722;-73
2022/12/22 04:03:14;;;;;;;53.23;21.63;;;;;;;;;;4997260;28;20187;-73
2022/12/22 04:05:39;;;;;;;50.17;24.03;;;;;;;;;;5011618;28;20183;-73
2022/12/22 04:08:04;;;;;;;49.73;23.23;;;;;;;;;;5010821;28;20227;-73
2022/12/22 04:13:13;;;;;;;49.60;22.50;;;;;;;;;;5010037;28;20222;-73
2022/12/22 04:15:38;;;;;;;50.00;24.43;;;;;;;;;;5013339;28;20262;-73
2022/12/22 04:18:04;;;;;;;46.77;21.53;;;;;;;;;;5010808;28;20272;-73
2022/12/22 04:20:29;;;;;;;48.00;22.97;;;;;;;;;;5006143;28;20630;-73
2022/12/22 04:22:55;;;;;;;44.50;21.57;;;;;;;;;;5010449;28;20185;-74
2022/12/22 04:25:20;;;;;;;46.23;21.87;;;;;;;;;;5009976;28;20183;-73
2022/12/22 04:27:45;;;;;;;47.10;21.73;;;;;;;;;;5012166;28;20214;-73
2022/12/22 04:30:11;;;;;;;47.90;24.20;;;;;;;;;;5001835;28;20210;-73
2022/12/22 04:32:36;;;;;;;42.87;20.03;;;;;;;;;;5010193;28;20183;-73
2022/12/22 04:35:01;;;;;;;47.67;21.57;;;;;;;;;;5012682;28;20207;-73
2022/12/22 04:37:27;;;;;;;44.57;20.63;;;;;;;;;;5010510;28;20219;-73
2022/12/22 04:39:52;;;;;;;43.03;21.60;;;;;;;;;;5009932;28;20210;-73
2022/12/22 04:42:17;;;;;;;46.17;20.53;;;;;;;;;;5011946;28;20242;-73
2022/12/22 04:44:42;;;;;;;43.40;23.00;;;;;;;;;;5011918;28;20245;-73
2022/12/22 04:47:07;;;;;;;49.93;22.10;;;;;;;;;;5013619;28;20230;-73
2022/12/22 04:49:33;;;;;;;45.13;21.10;;;;;;;;;;5013018;28;20819;-73
2022/12/22 04:51:58;;;;;;;45.73;21.70;;;;;;;;;;5006601;28;20599;-73
2022/12/22 04:54:23;;;;;;;47.37;21.80;;;;;;;;;;5011579;28;20751;-73
2022/12/22 04:56:49;;;;;;;44.07;21.67;;;;;;;;;;5008342;28;20651;-73
2022/12/22 04:59:14;;;;;;;43.50;21.27;;;;;;;;;;5007849;28;20356;-73
2022/12/22 05:01:39;;;;;;;45.83;22.37;;;;;;;;;;5005999;28;20699;-73
2022/12/22 05:04:04;;;;;;;50.37;23.00;;;;;;;;;;5013195;28;20215;-73
2022/12/22 05:06:30;;;;;;;44.73;22.77;;;;;;;;;;5010952;28;20190;-73
2022/12/22 05:08:55;;;;;;;47.83;21.43;;;;;;;;;;5008501;28;20175;-73
2022/12/22 05:11:20;;;;;;;43.13;21.40;;;;;;;;;;5008551;28;20194;-73
2022/12/22 05:13:45;;;;;;;41.33;19.87;;;;;;;;;;5011334;28;20207;-74
2022/12/22 05:16:12;;;;;;;39.87;19.90;;;;;;;;;;5008199;28;20202;-73
2022/12/22 05:18:38;;;;;;;43.07;20.97;;;;;;;;;;5010050;28;20521;-73
2022/12/22 05:21:05;;;;;;;39.63;21.00;;;;;;;;;;5007819;28;20199;-73
2022/12/22 05:23:30;;;;;;;44.80;20.17;;;;;;;;;;5011031;28;20195;-73
2022/12/22 05:25:55;;;;;;;37.67;19.37;;;;;;;;;;5006500;28;20182;-73
2022/12/22 05:28:21;;;;;;;42.20;21.20;;;;;;;;;;5007923;28;20202;-73
2022/12/22 05:30:46;;;;;;;43.03;20.57;;;;;;;;;;5004603;28;20187;-73
2022/12/22 05:33:11;;;;;;;48.57;23.93;;;;;;;;;;5006306;28;20285;-73
2022/12/22 05:35:36;;;;;;;45.87;21.63;;;;;;;;;;5008091;28;20197;-73
2022/12/22 05:38:01;;;;;;;48.70;23.23;;;;;;;;;;5007418;28;20305;-73
2022/12/22 05:40:27;;;;;;;67.13;23.73;;;;;;;;;;5004521;28;20197;-73
2022/12/22 05:42:52;;;;;;;54.07;22.47;;;;;;;;;;5009576;28;20213;-73
2022/12/22 05:45:18;;;;;;;57.67;24.23;;;;;;;;;;5010547;28;20186;-73
2022/12/22 05:47:44;;;;;;;50.83;22.80;;;;;;;;;;5010809;28;20219;-73
2022/12/22 05:50:11;;;;;;;62.93;26.30;;;;;;;;;;5011834;28;20602;-73
2022/12/22 05:52:36;;;;;;;60.63;25.23;;;;;;;;;;5011324;28;20183;-73
2022/12/22 05:55:02;;;;;;;56.70;25.50;;;;;;;;;;5009038;28;20183;-73
2022/12/22 05:57:27;;;;;;;51.03;22.67;;;;;;;;;;5011222;28;20738;-73
2022/12/22 05:59:52;;;;;;;60.30;25.17;;;;;;;;;;5006705;28;20717;-73
2022/12/22 06:02:17;;;;;;;64.97;24.13;;;;;;;;;;5008681;28;20211;-73
2022/12/22 06:04:42;;;;;;;64.50;25.70;;;;;;;;;;5011168;28;20210;-73
2022/12/22 06:07:08;;;;;;;59.23;24.43;;;;;;;;;;5008066;28;20211;-73
2022/12/22 06:09:33;;;;;;;64.73;25.43;;;;;;;;;;5005792;28;20203;-73
2022/12/22 06:11:58;;;;;;;70.27;27.67;;;;;;;;;;5011858;28;20175;-73
2022/12/22 06:14:23;;;;;;;71.03;26.47;;;;;;;;;;5006220;28;20195;-73
2022/12/22 06:16:49;;;;;;;63.93;25.17;;;;;;;;;;5009281;28;20234;-73
2022/12/22 06:19:14;;;;;;;64.47;25.63;;;;;;;;;;5009797;28;20230;-74
2022/12/22 06:21:39;;;;;;;63.53;25.77;;;;;;;;;;5005341;28;20199;-74
2022/12/22 06:24:05;;;;;;;65.17;25.43;;;;;;;;;;5002879;28;20190;-73
2022/12/22 06:26:30;;;;;;;59.20;25.03;;;;;;;;;;5007504;28;20317;-73
2022/12/22 06:28:55;;;;;;;62.87;25.13;;;;;;;;;;5002651;28;20168;-73
2022/12/22 06:31:20;;;;;;;57.20;23.47;;;;;;;;;;5008277;28;20258;-74
2022/12/22 06:33:46;;;;;;;54.90;23.03;;;;;;;;;;5010836;28;20174;-73
2022/12/22 06:36:11;;;;;;;51.63;22.60;;;;;;;;;;5011641;28;20179;-73
2022/12/22 06:38:37;;;;;;;60.17;23.40;;;;;;;;;;5009966;28;20241;-73
2022/12/22 06:41:02;;;;;;;49.87;20.43;;;;;;;;;;5010920;28;20583;-74
2022/12/22 06:43:27;;;;;;;54.27;21.10;;;;;;;;;;5009483;28;20653;-73
2022/12/22 06:45:52;;;;;;;50.63;20.53;;;;;;;;;;5005844;28;20217;-73
2022/12/22 06:48:18;;;;;;;50.97;19.83;;;;;;;;;;5011505;28;20191;-73
2022/12/22 06:50:43;;;;;;;46.87;18.47;;;;;;;;;;5009059;28;20190;-73
2022/12/22 06:53:08;;;;;;;47.00;19.17;;;;;;;;;;5009758;28;20179;-73
2022/12/22 06:55:34;;;;;;;50.80;20.27;;;;;;;;;;5010712;28;20278;-73
2022/12/22 06:57:59;;;;;;;46.07;20.87;;;;;;;;;;5009876;28;20569;-73
2022/12/22 07:00:24;;;;;;;39.60;17.40;;;;;;;;;;5005908;28;20240;-73
2022/12/22 07:02:50;;;;;;;37.97;14.27;;;;;;;;;;5004815;28;20175;-73
2022/12/22 07:05:15;;;;;;;33.33;11.83;;;;;;;;;;5010402;28;20265;-73
2022/12/22 07:07:40;;;;;;;39.47;13.27;;;;;;;;;;5012047;28;20617;-73
2022/12/22 07:10:06;;;;;;;34.83;12.33;;;;;;;;;;5006387;28;20175;-73
2022/12/22 07:12:31;;;;;;;40.17;12.80;;;;;;;;;;5007436;28;20600;-73
2022/12/22 07:14:56;;;;;;;34.00;13.00;;;;;;;;;;5007356;28;20179;-73
2022/12/22 07:17:22;;;;;;;36.43;12.87;;;;;;;;;;5009977;28;20198;-73
2022/12/22 07:19:47;;;;;;;31.47;12.83;;;;;;;;;;5006220;28;20197;-74
2022/12/22 07:22:12;;;;;;;35.10;12.57;;;;;;;;;;5006385;28;20221;-74
2022/12/22 07:24:37;;;;;;;37.43;12.00;;;;;;;;;;5004752;28;20321;-74
2022/12/22 07:27:02;;;;;;;27.63;11.00;;;;;;;;;;5011471;28;20194;-74
2022/12/22 07:29:28;;;;;;;28.07;10.80;;;;;;;;;;5005668;28;20222;-75
2022/12/22 07:31:53;;;;;;;29.50;10.47;;;;;;;;;;5010548;28;20203;-72
2022/12/22 07:34:18;;;;;;;28.57;11.17;;;;;;;;;;5010638;28;20190;-72
2022/12/22 07:36:43;;;;;;;27.47;10.20;;;;;;;;;;5011293;28;20214;-75
2022/12/22 07:39:10;;;;;;;28.80;10.20;;;;;;;;;;5010571;28;20661;-73
2022/12/22 07:44:19;;;;;;;30.33;11.57;;;;;;;;;;5014652;28;20182;-72
2022/12/22 07:46:44;;;;;;;18.77;8.50;;;;;;;;;;5016056;28;20183;-72
2022/12/22 07:51:54;;;;;;;23.03;9.87;;;;;;;;;;5011681;28;20197;-75
2022/12/22 07:54:20;;;;;;;22.00;8.53;;;;;;;;;;5013321;28;20205;-73
2022/12/22 07:56:45;;;;;;;25.10;9.87;;;;;;;;;;5010524;28;20198;-75
2022/12/22 07:59:11;;;;;;;24.53;8.97;;;;;;;;;;5010721;28;20189;-75
2022/12/22 08:01:37;;;;;;;20.70;8.70;;;;;;;;;;5006595;28;20210;-72
2022/12/22 08:04:02;;;;;;;26.07;9.37;;;;;;;;;;5016167;28;20171;-72
2022/12/22 08:06:28;;;;;;;27.07;8.00;;;;;;;;;;5005692;28;20172;-72
2022/12/22 08:08:53;;;;;;;30.90;8.73;;;;;;;;;;5012089;28;20206;-72
2022/12/22 08:11:18;;;;;;;27.93;7.47;;;;;;;;;;5015729;28;20717;-72
2022/12/22 08:13:43;;;;;;;24.93;8.70;;;;;;;;;;5018317;28;20183;-73
2022/12/22 08:16:10;;;;;;;23.57;8.53;;;;;;;;;;5021110;28;20183;-73
2022/12/22 08:18:35;;;;;;;29.70;7.77;;;;;;;;;;5003672;28;20227;-73
2022/12/22 08:21:01;;;;;;;27.20;5.77;;;;;;;;;;5012490;28;20243;-73
2022/12/22 08:23:27;;;;;;;24.43;6.70;;;;;;;;;;5020828;28;20175;-73
2022/12/22 08:25:57;;;;;;;52.03;7.73;;;;;;;;;;5009192;28;20171;-73
2022/12/22 08:28:22;;;;;;;19.43;5.47;;;;;;;;;;5013939;28;20676;-73
2022/12/22 08:30:48;;;;;;;19.43;5.47;;;;;;;;;;5011051;28;20253;-73
2022/12/22 08:33:13;;;;;;;21.93;5.33;;;;;;;;;;5010338;28;20171;-74
2022/12/22 08:35:38;;;;;;;11.50;5.70;;;;;;;;;;5005775;28;20194;-74
2022/12/22 08:38:04;;;;;;;22.07;6.37;;;;;;;;;;5008593;28;20212;-73
2022/12/22 08:40:30;;;;;;;13.53;5.67;;;;;;;;;;5011463;28;20226;-73
2022/12/22 08:42:58;;;;;;;17.63;5.67;;;;;;;;;;5005684;28;20210;-73
2022/12/22 08:45:23;;;;;;;18.10;6.40;;;;;;;;;;5006222;28;20191;-73
2022/12/22 08:47:48;;;;;;;22.80;7.23;;;;;;;;;;5009730;28;20195;-73
2022/12/22 08:50:13;;;;;;;19.73;7.30;;;;;;;;;;5015665;28;20214;-73
2022/12/22 08:52:39;;;;;;;40.03;8.50;;;;;;;;;;5010997;28;20591;-73
2022/12/22 08:55:04;;;;;;;31.10;7.67;;;;;;;;;;5005426;28;20190;-73
2022/12/22 08:57:29;;;;;;;35.50;7.80;;;;;;;;;;5016213;28;20890;-73
2022/12/22 08:59:55;;;;;;;41.17;8.63;;;;;;;;;;5012348;28;20178;-75
2022/12/22 09:02:21;;;;;;;26.60;8.50;;;;;;;;;;5012666;28;20333;-75
2022/12/22 09:04:46;;;;;;;21.87;7.90;;;;;;;;;;5011662;28;20317;-75
2022/12/22 09:07:11;;;;;;;32.73;7.87;;;;;;;;;;5013560;28;20190;-74
2022/12/22 09:09:36;;;;;;;27.40;9.07;;;;;;;;;;5011444;28;20238;-75
2022/12/22 09:12:02;;;;;;;14.67;8.27;;;;;;;;;;5012130;28;20175;-74
2022/12/22 09:14:28;;;;;;;17.90;9.00;;;;;;;;;;5011143;28;20187;-74
2022/12/22 09:16:53;;;;;;;14.23;8.53;;;;;;;;;;5012917;28;20198;-74
2022/12/22 09:19:18;;;;;;;14.30;7.97;;;;;;;;;;5007810;28;22020;-74
2022/12/22 09:21:44;;;;;;;15.87;9.10;;;;;;;;;;5003897;28;20222;-74
2022/12/22 09:24:09;;;;;;;17.53;9.20;;;;;;;;;;5007533;28;20175;-72
2022/12/22 09:26:34;;;;;;;22.53;9.90;;;;;;;;;;5008860;28;20198;-74
2022/12/22 09:29:00;;;;;;;14.53;8.50;;;;;;;;;;4999206;28;20182;-74
2022/12/22 09:31:25;;;;;;;18.23;8.90;;;;;;;;;;5011842;28;20178;-74
2022/12/22 09:33:51;;;;;;;16.57;8.13;;;;;;;;;;5008279;28;20171;-74
2022/12/22 09:36:17;;;;;;;17.90;8.10;;;;;;;;;;5012671;28;20175;-74
2022/12/22 09:38:43;;;;;;;14.53;7.73;;;;;;;;;;5033775;22;20580;-78
2022/12/22 09:41:13;;;;;;;12.30;7.63;;;;;;;;;;5031026;28;20221;-78
2022/12/22 09:43:38;;;;;;;13.80;8.03;;;;;;;;;;5031789;28;20174;-78
2022/12/22 09:46:03;;;;;;;12.73;7.20;;;;;;;;;;5031869;28;20328;-78
2022/12/22 09:48:34;;;;;;;11.97;6.23;;;;;;;;;;5030860;28;20190;-78
2022/12/22 09:51:00;;;;;;;9.53;6.73;;;;;;;;;;5026136;28;20723;-78
2022/12/22 09:53:25;;;;;;;10.47;6.77;;;;;;;;;;5031713;28;20269;-80
2022/12/22 09:55:50;;;;;;;13.53;6.50;;;;;;;;;;5026846;28;20269;-80
2022/12/22 09:58:19;;;;;;;11.53;6.77;;;;;;;;;;5031160;28;20206;-78
2022/12/22 10:00:46;;;;;;;12.57;6.03;;;;;;;;;;5031652;28;20545;-80
2022/12/22 10:03:30;;;;;;;13.33;7.17;;;;;;;;;;5030973;28;20178;-79
2022/12/22 10:06:16;;;;;;;11.33;7.13;;;;;;;;;;5040275;28;20174;-80
2022/12/22 10:08:41;;;;;;;12.27;6.40;;;;;;;;;;5032593;28;20194;-80
2022/12/22 10:11:11;;;;;;;13.00;6.67;;;;;;;;;;5030715;28;20178;-80
2022/12/22 10:13:36;;;;;;;13.13;5.73;;;;;;;;;;5031820;28;20178;-80
2022/12/22 10:16:14;;;;;;;12.63;7.30;;;;;;;;;;5032756;28;20640;-80
2022/12/22 10:18:52;;;;;;;8.70;6.17;;;;;;;;;;5032609;28;20241;-80
2022/12/22 10:21:21;;;;;;;12.30;6.57;;;;;;;;;;5031605;28;20289;-79
2022/12/22 10:23:47;;;;;;;8.80;5.40;;;;;;;;;;5031736;28;20196;-79
2022/12/22 10:26:15;;;;;;;12.02;5.82;;;;;;;;;;5031805;28;20190;-79
2022/12/22 10:28:40;;;;;;;9.60;4.88;;;;;;;;;;5031714;28;20206;-79
2022/12/22 10:31:31;;;;;;;8.85;5.03;;;;;;;;;;5029645;28;20277;-79
2022/12/22 10:34:09;;;;;;;8.63;4.40;;;;;;;;;;5022793;28;20179;-79
2022/12/22 10:36:34;;;;;;;7.90;5.28;;;;;;;;;;5029942;28;20192;-79
2022/12/22 10:39:07;;;;;;;7.85;4.43;;;;;;;;;;5032308;28;20600;-79
2022/12/22 10:41:38;;;;;;;7.93;4.10;;;;;;;;;;5027345;28;20221;-79
2022/12/22 10:44:21;;;;;;;11.23;4.40;;;;;;;;;;5028216;28;20236;-79
2022/12/22 10:46:57;;;;;;;6.60;3.80;;;;;;;;;;5026797;28;20178;-79
2022/12/22 10:49:22;;;;;;;6.43;3.85;;;;;;;;;;5027115;28;20563;-79
2022/12/22 10:51:52;;;;;;;7.18;3.97;;;;;;;;;;5026833;28;20206;-79
2022/12/22 10:54:28;;;;;;;5.05;3.20;;;;;;;;;;5036425;28;20214;-79
2022/12/22 10:57:02;;;;;;;5.25;3.92;;;;;;;;;;5030201;28;20174;-79
2022/12/22 10:59:28;;;;;;;6.68;3.47;;;;;;;;;;5027891;28;20181;-80
2022/12/22 11:01:53;;;;;;;5.97;3.97;;;;;;;;;;5028103;28;20201;-80
2022/12/22 11:04:21;;;;;;;6.38;3.65;;;;;;;;;;5030874;28;20186;-80
2022/12/22 11:06:46;;;;;;;12.60;4.53;;;;;;;;;;5027562;28;20687;-79
2022/12/22 11:09:12;;;;;;;8.95;4.68;;;;;;;;;;5032181;28;20182;-81
2022/12/22 11:11:45;;;;;;;6.53;3.95;;;;;;;;;;5027302;28;20190;-79
2022/12/22 11:14:19;;;;;;;6.43;4.47;;;;;;;;;;5023243;28;20249;-79
2022/12/22 11:16:44;;;;;;;6.93;4.20;;;;;;;;;;5035660;28;20263;-80
2022/12/22 11:19:17;;;;;;;9.13;4.65;;;;;;;;;;5036981;28;20633;-79
2022/12/22 11:22:01;;;;;;;7.32;3.88;;;;;;;;;;5028596;28;20273;-79
2022/12/22 11:24:32;;;;;;;6.03;4.10;;;;;;;;;;5036117;28;20220;-80
2022/12/22 11:27:16;;;;;;;8.02;4.55;;;;;;;;;;5036056;28;20209;-79
2022/12/22 11:30:01;;;;;;;8.73;5.05;;;;;;;;;;5031743;28;20628;-79
2022/12/22 11:32:41;;;;;;;9.93;4.60;;;;;;;;;;5032404;28;20186;-79
2022/12/22 11:35:09;;;;;;;7.70;4.93;;;;;;;;;;5033830;28;20570;-79
2022/12/22 11:37:43;;;;;;;8.43;4.70;;;;;;;;;;5033488;28;20221;-79
2022/12/22 11:40:11;;;;;;;9.00;4.60;;;;;;;;;;5035080;28;20177;-79
2022/12/22 11:42:54;;;;;;;13.18;5.05;;;;;;;;;;5033602;28;20834;-79
2022/12/22 11:45:38;;;;;;;7.78;4.53;;;;;;;;;;5034377;28;20276;-79
2022/12/22 11:48:09;;;;;;;8.55;4.50;;;;;;;;;;5035481;28;20190;-79
2022/12/22 11:50:40;;;;;;;13.20;5.37;;;;;;;;;;5033973;28;20691;-77
2022/12/22 11:53:14;;;;;;;6.23;4.73;;;;;;;;;;5031445;28;20222;-80
2022/12/22 11:55:43;;;;;;;11.13;5.37;;;;;;;;;;5034422;28;20174;-79
2022/12/22 11:58:27;;;;;;;9.03;5.77;;;;;;;;;;5034755;28;20202;-80
2022/12/22 12:00:59;;;;;;;9.63;6.33;;;;;;;;;;5024853;28;20285;-79
2022/12/22 12:03:45;;;;;;;10.80;6.67;;;;;;;;;;5026762;28;20667;-79
2022/12/22 12:06:30;;;;;;;11.43;7.37;;;;;;;;;;5038518;28;20175;-80
2022/12/22 12:09:22;;;;;;;13.20;8.87;;;;;;;;;;5034648;28;20198;-79
2022/12/22 12:11:59;;;;;;;16.70;8.97;;;;;;;;;;5031234;28;20182;-80
2022/12/22 12:14:37;;;;;;;15.30;9.47;;;;;;;;;;5033594;28;20174;-79
2022/12/22 12:17:21;;;;;;;15.80;9.60;;;;;;;;;;5034283;28;20198;-78
2022/12/22 12:19:52;;;;;;;16.40;10.07;;;;;;;;;;5025766;28;20185;-78
2022/12/22 12:22:23;;;;;;;17.87;10.63;;;;;;;;;;5031164;28;20580;-80
2022/12/22 12:25:02;;;;;;;14.30;9.23;;;;;;;;;;5030734;28;20826;-78
2022/12/22 12:28:02;;;;;;;22.60;10.80;;;;;;;;;;5032460;28;20293;-79
2022/12/22 12:30:31;;;;;;;23.97;12.57;;;;;;;;;;4971100;28;20292;-81
2022/12/22 12:32:56;;;;;;;21.00;12.43;;;;;;;;;;5025179;28;20185;-80
2022/12/22 12:35:34;;;;;;;25.80;13.73;;;;;;;;;;5035837;28;20170;-80
2022/12/22 12:38:19;;;;;;;26.73;13.30;;;;;;;;;;5043340;28;20209;-80
2022/12/22 12:40:52;;;;;;;26.30;13.53;;;;;;;;;;5023287;28;20265;-81
2022/12/22 12:43:17;;;;;;;27.23;14.93;;;;;;;;;;5034072;28;20468;-80
2022/12/22 12:45:44;;;;;;;30.50;15.27;;;;;;;;;;5036541;28;20171;-80
2022/12/22 12:48:22;;;;;;;27.53;14.93;;;;;;;;;;5033350;28;20691;-80
2022/12/22 12:50:54;;;;;;;27.63;15.90;;;;;;;;;;5033291;28;20269;-80
2022/12/22 12:53:21;;;;;;;26.13;14.43;;;;;;;;;;5035337;28;20281;-80
2022/12/22 12:55:48;;;;;;;31.53;16.67;;;;;;;;;;5031224;28;20531;-80
2022/12/22 12:58:34;;;;;;;24.77;13.40;;;;;;;;;;5032774;28;20202;-80
2022/12/22 13:00:59;;;;;;;31.50;14.63;;;;;;;;;;5026438;28;21429;-80
2022/12/22 13:03:27;;;;;;;27.80;14.60;;;;;;;;;;5034897;28;20190;-80
2022/12/22 13:05:53;;;;;;;26.60;14.97;;;;;;;;;;5033821;28;20301;-80
2022/12/22 13:08:29;;;;;;;28.90;15.97;;;;;;;;;;5033414;28;20271;-80
2022/12/22 13:10:54;;;;;;;26.87;14.90;;;;;;;;;;5032207;28;20532;-80
2022/12/22 13:13:25;;;;;;;25.63;14.43;;;;;;;;;;5034361;28;20181;-80
2022/12/22 13:16:03;;;;;;;32.10;16.60;;;;;;;;;;5031667;28;20197;-80
2022/12/22 13:18:28;;;;;;;26.73;15.10;;;;;;;;;;5034599;28;20194;-80
2022/12/22 13:20:56;;;;;;;27.83;14.50;;;;;;;;;;5031123;28;20209;-80
2022/12/22 13:23:22;;;;;;;25.77;15.40;;;;;;;;;;5030750;28;20184;-80
2022/12/22 13:25:49;;;;;;;30.63;15.73;;;;;;;;;;5032578;28;20627;-80
2022/12/22 13:28:15;;;;;;;27.67;15.30;;;;;;;;;;5031988;28;20201;-80
2022/12/22 13:30:44;;;;;;;28.40;16.23;;;;;;;;;;5033120;28;20170;-80
2022/12/22 13:33:11;;;;;;;28.33;16.07;;;;;;;;;;5036924;28;20179;-79
2022/12/22 13:35:38;;;;;;;25.37;15.40;;;;;;;;;;5031412;28;20660;-80
2022/12/22 13:38:03;;;;;;;26.93;16.07;;;;;;;;;;5020926;28;20210;-80
2022/12/22 13:40:30;;;;;;;25.67;16.53;;;;;;;;;;5029705;28;20178;-80
2022/12/22 13:43:10;;;;;;;27.73;15.57;;;;;;;;;;5029552;28;20645;-80
2022/12/22 13:45:43;;;;;;;29.83;17.50;;;;;;;;;;5027587;28;20178;-80
2022/12/22 13:48:13;;;;;;;27.37;15.80;;;;;;;;;;5032807;28;20229;-79
2022/12/22 13:50:41;;;;;;;28.47;15.03;;;;;;;;;;5031890;28;20187;-81
2022/12/22 13:53:08;;;;;;;26.63;14.83;;;;;;;;;;5037209;28;20193;-80
2022/12/22 13:55:35;;;;;;;27.60;15.60;;;;;;;;;;5034556;28;20206;-79
2022/12/22 13:58:20;;;;;;;28.70;16.37;;;;;;;;;;5041378;28;20767;-80
2022/12/22 14:00:58;;;;;;;27.60;15.13;;;;;;;;;;5028453;28;20233;-80
2022/12/22 14:03:23;;;;;;;26.87;15.63;;;;;;;;;;5034572;28;20648;-80
2022/12/22 14:05:49;;;;;;;26.00;15.27;;;;;;;;;;5020173;28;20265;-81
2022/12/22 14:08:20;;;;;;;28.13;16.40;;;;;;;;;;5029323;28;20204;-80
2022/12/22 14:10:45;;;;;;;24.57;14.80;;;;;;;;;;5038182;28;20178;-80
2022/12/22 14:13:14;;;;;;;27.00;15.73;;;;;;;;;;5033731;28;20176;-79
2022/12/22 14:15:39;;;;;;;25.40;15.77;;;;;;;;;;5040053;28;20268;-79
2022/12/22 14:18:04;;;;;;;28.60;14.30;;;;;;;;;;5036345;28;20590;-80
2022/12/22 14:20:35;;;;;;;28.43;15.23;;;;;;;;;;5038157;28;20597;-80
2022/12/22 14:23:04;;;;;;;27.90;16.37;;;;;;;;;;5035292;28;20561;-80
2022/12/22 14:25:34;;;;;;;29.37;15.73;;;;;;;;;;5032311;28;20198;-79
2022/12/22 14:28:00;;;;;;;27.07;17.20;;;;;;;;;;5032791;28;20205;-80
2022/12/22 14:30:33;;;;;;;28.73;15.87;;;;;;;;;;5036349;28;20193;-80
2022/12/22 14:33:12;;;;;;;26.10;15.43;;;;;;;;;;5041629;28;20201;-79
2022/12/22 14:35:37;;;;;;;28.80;16.77;;;;;;;;;;5046307;28;20186;-79
2022/12/22 14:38:05;;;;;;;29.93;17.57;;;;;;;;;;5047611;28;20240;-80
2022/12/22 14:40:31;;;;;;;31.97;16.33;;;;;;;;;;5037475;28;20228;-80
2022/12/22 14:42:57;;;;;;;26.03;16.10;;;;;;;;;;5038357;28;20166;-80
2022/12/22 14:45:22;;;;;;;31.67;16.60;;;;;;;;;;5033512;28;20243;-80
2022/12/22 14:47:48;;;;;;;25.97;16.23;;;;;;;;;;5050557;28;21018;-80
2022/12/22 14:50:17;;;;;;;30.60;16.80;;;;;;;;;;5036686;28;20197;-80
2022/12/22 14:52:44;;;;;;;29.17;17.40;;;;;;;;;;5035513;28;20258;-80
2022/12/22 14:55:28;;;;;;;28.50;17.33;;;;;;;;;;5036526;28;20185;-80
2022/12/22 14:58:05;;;;;;;28.07;17.17;;;;;;;;;;5032494;28;20692;-80
2022/12/22 15:00:33;;;;;;;30.37;17.53;;;;;;;;;;5029773;28;20193;-80
2022/12/22 15:03:03;;;;;;;36.13;17.77;;;;;;;;;;5032039;28;20179;-80
2022/12/22 15:05:37;;;;;;;30.90;16.83;;;;;;;;;;5033659;28;20182;-80
2022/12/22 15:08:04;;;;;;;33.90;19.17;;;;;;;;;;5031817;28;20219;-80
2022/12/22 15:10:34;;;;;;;33.03;19.07;;;;;;;;;;5038030;28;20192;-80
2022/12/22 15:13:04;;;;;;;32.63;19.20;;;;;;;;;;5036489;28;20179;-80
2022/12/22 15:15:30;;;;;;;31.33;18.67;;;;;;;;;;5035832;28;20250;-80
2022/12/22 15:17:55;;;;;;;32.43;19.77;;;;;;;;;;5032581;28;20232;-81
2022/12/22 15:20:22;;;;;;;38.47;21.90;;;;;;;;;;5030937;28;20625;-80
2022/12/22 15:22:48;;;;;;;33.07;19.87;;;;;;;;;;5033772;28;20194;-80
2022/12/22 15:25:14;;;;;;;31.27;19.13;;;;;;;;;;5030933;28;20679;-80
2022/12/22 15:27:39;;;;;;;35.63;20.63;;;;;;;;;;5035251;28;20198;-80
2022/12/22 15:30:04;;;;;;;36.57;19.87;;;;;;;;;;5042626;28;20224;-79
2022/12/22 15:32:30;;;;;;;35.73;19.77;;;;;;;;;;5042640;28;20189;-80
2022/12/22 15:34:55;;;;;;;37.67;21.13;;;;;;;;;;5038551;28;20185;-80
2022/12/22 15:37:20;;;;;;;36.17;20.20;;;;;;;;;;5030010;28;20584;-80
2022/12/22 15:39:46;;;;;;;33.67;19.50;;;;;;;;;;5030019;28;20670;-80
2022/12/22 15:42:11;;;;;;;35.60;19.73;;;;;;;;;;5031678;28;20206;-81
2022/12/22 15:44:36;;;;;;;32.63;20.17;;;;;;;;;;5027099;28;20182;-81
2022/12/22 15:47:01;;;;;;;30.07;18.57;;;;;;;;;;5029807;28;20186;-81
2022/12/22 15:49:28;;;;;;;33.53;18.97;;;;;;;;;;5030289;28;20186;-81
2022/12/22 15:51:55;;;;;;;29.73;18.53;;;;;;;;;;5023892;28;20174;-80
2022/12/22 15:54:21;;;;;;;34.50;22.20;;;;;;;;;;5028123;28;20188;-80
2022/12/22 15:56:49;;;;;;;33.23;18.80;;;;;;;;;;5027916;28;20170;-80
2022/12/22 15:59:19;;;;;;;33.97;19.60;;;;;;;;;;5030792;28;20190;-80
2022/12/22 16:01:44;;;;;;;32.63;18.27;;;;;;;;;;5027481;28;20202;-81
2022/12/22 16:04:10;;;;;;;33.80;19.63;;;;;;;;;;5033262;28;20329;-80
2022/12/22 16:06:35;;;;;;;32.73;19.33;;;;;;;;;;5041282;28;20193;-80
2022/12/22 16:09:02;;;;;;;33.10;19.90;;;;;;;;;;5038101;28;20186;-80
2022/12/22 16:11:28;;;;;;;32.73;19.83;;;;;;;;;;5040929;28;20178;-80
2022/12/22 16:13:53;;;;;;;34.53;19.97;;;;;;;;;;5032623;28;20181;-80
2022/12/22 16:16:18;;;;;;;30.50;17.97;;;;;;;;;;5029936;28;20236;-80
2022/12/22 16:18:43;;;;;;;29.60;18.07;;;;;;;;;;5035754;28;20202;-80
2022/12/22 16:21:14;;;;;;;27.37;18.10;;;;;;;;;;5032514;28;20217;-80
2022/12/22 16:23:40;;;;;;;28.77;17.17;;;;;;;;;;5036349;28;20193;-81
2022/12/22 16:26:05;;;;;;;27.63;16.23;;;;;;;;;;5033999;28;20190;-80
2022/12/22 16:28:31;;;;;;;26.30;16.97;;;;;;;;;;5030504;28;20202;-80
2022/12/22 16:30:58;;;;;;;26.03;16.40;;;;;;;;;;5031236;28;20189;-81
2022/12/22 16:33:23;;;;;;;26.57;16.50;;;;;;;;;;5034094;28;20232;-80
2022/12/22 16:35:48;;;;;;;26.27;15.53;;;;;;;;;;5033409;28;20604;-80
2022/12/22 16:38:13;;;;;;;23.80;16.00;;;;;;;;;;5030314;28;20279;-81
2022/12/22 16:40:40;;;;;;;28.30;16.83;;;;;;;;;;5032468;28;20179;-80
2022/12/22 16:43:23;;;;;;;28.27;15.63;;;;;;;;;;5034919;28;20216;-80
2022/12/22 16:45:48;;;;;;;23.53;14.27;;;;;;;;;;5059328;28;20182;-81
2022/12/22 16:48:15;;;;;;;21.77;14.10;;;;;;;;;;5035858;28;20216;-81
2022/12/22 16:50:43;;;;;;;24.93;16.03;;;;;;;;;;5035836;28;20563;-80
2022/12/22 16:53:08;;;;;;;24.77;15.30;;;;;;;;;;5034585;28;20189;-80
2022/12/22 16:55:34;;;;;;;24.10;15.33;;;;;;;;;;5034715;28;20600;-81
2022/12/22 16:57:59;;;;;;;21.67;14.33;;;;;;;;;;5036172;28;20202;-81
2022/12/22 17:00:28;;;;;;;27.60;17.13;;;;;;;;;;5033717;28;20189;-81
2022/12/22 17:02:54;;;;;;;24.57;14.30;;;;;;;;;;5031747;28;20210;-81
2022/12/22 17:05:25;;;;;;;23.20;15.37;;;;;;;;;;5034151;28;20186;-81
2022/12/22 17:07:50;;;;;;;22.47;14.50;;;;;;;;;;5031581;28;20214;-80
2022/12/22 17:10:17;;;;;;;23.07;14.57;;;;;;;;;;5033301;28;20179;-80
2022/12/22 17:12:42;;;;;;;21.87;15.00;;;;;;;;;;5029244;28;20570;-80
2022/12/22 17:15:14;;;;;;;23.97;13.97;;;;;;;;;;5035258;28;20208;-80
2022/12/22 17:17:39;;;;;;;21.37;14.10;;;;;;;;;;5031891;28;20228;-80
2022/12/22 17:20:05;;;;;;;22.10;13.80;;;;;;;;;;5032348;28;20652;-80
2022/12/22 17:22:31;;;;;;;17.80;13.00;;;;;;;;;;5032301;28;20283;-81
2022/12/22 17:24:58;;;;;;;21.53;13.97;;;;;;;;;;5033089;28;20378;-81
2022/12/22 17:27:25;;;;;;;20.00;12.90;;;;;;;;;;5034953;28;20191;-81
2022/12/22 17:29:51;;;;;;;22.40;13.27;;;;;;;;;;5030487;28;20203;-81
2022/12/22 17:32:19;;;;;;;22.83;12.37;;;;;;;;;;5033534;28;20607;-81
2022/12/22 17:34:44;;;;;;;18.13;11.97;;;;;;;;;;5032601;28;20229;-81
2022/12/22 17:37:13;;;;;;;18.77;12.53;;;;;;;;;;5041137;28;20210;-80
2022/12/22 17:39:38;;;;;;;20.90;13.40;;;;;;;;;;5040809;28;20214;-81
2022/12/22 17:42:13;;;;;;;21.03;14.13;;;;;;;;;;5031399;28;20702;-81
2022/12/22 17:44:38;;;;;;;19.57;12.93;;;;;;;;;;5030802;28;20220;-81
2022/12/22 17:47:03;;;;;;;21.43;13.63;;;;;;;;;;5031961;28;20587;-81
2022/12/22 17:49:29;;;;;;;23.30;14.27;;;;;;;;;;5034114;28;20181;-81
2022/12/22 17:51:54;;;;;;;19.23;11.83;;;;;;;;;;5036293;28;20174;-81
2022/12/22 17:54:21;;;;;;;18.13;12.63;;;;;;;;;;5032875;28;20236;-81
2022/12/22 17:56:46;;;;;;;20.00;12.73;;;;;;;;;;5032457;28;20701;-81
2022/12/22 17:59:11;;;;;;;20.53;14.13;;;;;;;;;;5032221;28;20216;-81
2022/12/22 18:01:38;;;;;;;20.67;13.97;;;;;;;;;;5027574;28;20202;-81
2022/12/22 18:04:08;;;;;;;19.23;13.23;;;;;;;;;;5033052;28;20177;-81